Latest Weather Observations for Launceston Airport

IDT60801

Issued at 1:31 pm EST Tuesday 31 May 2016 (issued every 30 minutes, with the page automatically refreshed every 10 minutes)

About weather observations | Map of weather stations | Latest weather observations for TAS | Other Formats
Station Details ID: 091311 Name: LAUNCESTON AIRPORT Lat: -41.55 Lon: 147.21 Height: 166.9 m
Data from the previous 72 hours. | See also: Recent months at Launceston Airport
Date/Time
EST
Temp
°C
App
Temp
°C
Dew
Point
Rel
Hum
%
Delta-T
°C
Wind Press
QNH
hPa
Press
MSL
hPa
Rain
since 9 am
mm
Dir
 
Spd
km/h
Gust
km/h
Spd
kts
Gust
kts
31/01:30pm 10.1 7.5 5.9 75 1.9 S 9 13 5 7 1031.9 1032.2 0.0
31/01:00pm 9.0 6.2 5.0 76 1.8 S 9 13 5 7 1032.2 1032.5 0.0
31/12:30pm 8.3 5.1 4.9 79 1.5 S 11 17 6 9 1032.5 1032.8 0.0
31/12:00pm 7.4 4.5 4.7 83 1.2 S 9 13 5 7 1032.8 1033.1 0.0
31/11:30am 5.9 2.5 3.9 87 0.9 S 11 13 6 7 1033.1 1033.4 0.0
31/11:00am 4.7 1.1 2.9 88 0.7 SSW 11 15 6 8 1033.6 1033.9 0.0
31/10:30am 4.4 0.4 3.1 91 0.5 S 13 17 7 9 1033.8 1034.1 0.0
31/10:00am 3.5 -0.9 2.6 94 0.4 S 15 19 8 10 1033.8 1034.1 0.0
31/09:30am 2.2 -2.0 1.8 97 0.2 S 13 17 7 9 1033.9 1034.2 0.0
31/09:00am 1.2 -3.1 0.9 98 0.1 S 13 17 7 9 1033.8 1034.1 0.0
31/08:42am 0.6 -3.0 0.3 98 0.1 SSW 9 13 5 7 1033.8 1034.1 0.0
31/08:34am 0.0 -4.1 -0.3 98 0.1 S 11 13 6 7 1033.7 1034.0 0.0
31/08:30am -0.2 -4.0 -0.5 98 0.1 S 9 13 5 7 1033.6 1033.9 0.0
31/08:00am -0.5 -4.3 -0.9 97 0.1 SSE 9 13 5 7 1033.3 1033.6 0.0
31/07:46am -0.5 -3.9 -0.9 97 0.1 S 7 9 4 5 1033.1 1033.4 0.0
31/07:39am -0.5 -4.3 -0.9 97 0.1 SSW 9 11 5 6 1033.1 1033.4 0.0
31/07:31am -0.4 -4.2 -0.8 97 0.1 SSW 9 9 5 5 1032.9 1033.2 0.0
31/07:30am -0.4 -4.2 -0.8 97 0.1 SSW 9 9 5 5 1032.9 1033.2 0.0
31/07:14am -0.3 -3.7 -0.7 97 0.1 SSW 7 9 4 5 1032.8 1033.1 0.0
31/07:00am 0.0 -3.8 -0.4 97 0.1 SSW 9 11 5 6 1032.7 1033.0 0.0
31/06:30am -0.4 -4.2 -0.8 97 0.1 S 9 11 5 6 1032.4 1032.7 0.0
31/06:00am 0.8 -2.5 0.4 97 0.1 SSW 7 11 4 6 1032.3 1032.6 0.0
31/05:30am 1.2 -2.8 0.8 97 0.2 S 11 13 6 7 1032.0 1032.3 0.0
31/05:00am 1.1 -2.1 0.5 96 0.2 S 7 11 4 6 1031.8 1032.1 0.0
31/04:30am 1.9 -2.4 1.3 96 0.2 S 13 17 7 9 1031.6 1031.9 0.0
31/04:00am 1.8 -2.5 1.2 96 0.2 S 13 17 7 9 1031.5 1031.8 0.0
31/03:30am 1.6 -2.3 1.0 96 0.2 S 11 15 6 8 1031.5 1031.8 0.0
31/03:00am 1.7 -2.2 1.0 95 0.3 S 11 17 6 9 1031.5 1031.8 0.0
31/02:30am 1.8 -2.1 0.9 94 0.3 S 11 13 6 7 1031.5 1031.8 0.0
31/02:00am 2.6 -0.4 1.7 94 0.3 S 7 11 4 6 1031.4 1031.7 0.0
31/01:30am 2.9 -0.8 2.2 95 0.3 S 11 17 6 9 1031.3 1031.6 0.0
31/01:00am 2.5 -1.0 1.5 93 0.4 S 9 11 5 6 1031.3 1031.6 0.0
31/12:30am 2.6 -0.8 1.6 93 0.4 S 9 13 5 7 1031.2 1031.4 0.0
31/12:00am 2.4 -1.4 1.5 94 0.3 S 11 13 6 7 1031.3 1031.6 0.0
 
Date/Time
EST
Temp
°C
App
Temp
°C
Dew
Point
Rel
Hum
%
Delta-T
°C
Wind Press
QNH
hPa
Press
MSL
hPa
Rain
since 9 am
mm
Dir
 
Spd
km/h
Gust
km/h
Spd
kts
Gust
kts
30/11:30pm 2.9 -0.5 2.0 94 0.4 SSE 9 9 5 5 1031.2 1031.4 0.0
30/11:00pm 3.1 -0.7 1.9 92 0.5 S 11 13 6 7 1031.2 1031.4 0.0
30/10:30pm 3.7 0.0 2.1 89 0.6 S 11 13 6 7 1031.2 1031.4 0.0
30/10:00pm 4.2 0.2 2.7 90 0.6 SSE 13 17 7 9 1031.0 1031.2 0.0
30/09:30pm 4.2 1.0 2.9 91 0.5 SSE 9 11 5 6 1030.9 1031.1 0.0
30/09:00pm 4.6 1.8 3.4 92 0.5 S 7 11 4 6 1030.5 1030.8 0.0
30/08:48pm 4.6 1.5 3.6 93 0.4 SSW 9 9 5 5 1030.4 1030.7 0.0
30/08:30pm 3.8 0.1 2.5 91 0.5 S 11 13 6 7 1030.2 1030.5 0.0
30/08:03pm 4.0 2.4 2.4 89 0.6 CALM 0 0 0 0 1029.9 1030.2 0.0
30/08:00pm 4.0 2.4 2.2 88 0.7 CALM 0 0 0 0 1029.8 1030.1 0.0
30/07:30pm 4.5 2.1 2.0 84 1.0 W 4 6 2 3 1029.6 1029.9 0.0
30/07:28pm 4.7 2.3 2.2 84 1.0 W 4 6 2 3 1029.6 1029.9 0.0
30/07:13pm 4.9 2.5 2.1 82 1.1 W 4 6 2 3 1029.5 1029.8 0.0
30/07:00pm 5.4 3.9 2.8 83 1.1 CALM 0 0 0 0 1029.4 1029.7 0.0
30/06:30pm 5.0 3.0 2.5 84 1.0 W 2 6 1 3 1029.0 1029.3 0.0
30/06:00pm 6.3 4.9 3.6 83 1.1 CALM 0 0 0 0 1028.6 1028.9 0.0
30/05:30pm 7.4 6.1 4.0 79 1.5 CALM 0 0 0 0 1028.4 1028.7 0.0
30/05:00pm 8.8 7.6 4.4 74 1.9 CALM 0 0 0 0 1028.1 1028.4 0.0
30/04:30pm 10.6 9.5 4.9 68 2.6 CALM 0 0 0 0 1027.8 1028.1 0.0
30/04:17pm 11.1 9.9 4.8 65 2.9 CALM 0 0 0 0 1027.8 1028.1 0.0
30/04:00pm 11.7 9.5 5.3 65 3.0 W 6 7 3 4 1027.6 1027.9 0.0
30/03:38pm 10.6 8.1 4.7 67 2.7 WNW 7 9 4 5 1027.4 1027.7 0.0
30/03:30pm 11.0 8.3 3.8 61 3.2 NW 7 9 4 5 1027.4 1027.7 0.0
30/03:00pm 12.5 10.8 4.2 57 3.8 NNW 2 6 1 3 1027.2 1027.5 0.0
30/02:30pm 12.7 11.3 5.6 62 3.3 ESE 2 6 1 3 1027.0 1027.3 0.0
30/02:00pm 10.7 9.7 5.5 70 2.4 CALM 0 0 0 0 1027.0 1027.3 0.0
30/01:30pm 10.1 9.0 5.1 71 2.3 CALM 0 0 0 0 1027.0 1027.3 0.0
30/01:00pm 10.3 7.9 5.3 71 2.3 SE 7 9 4 5 1026.9 1027.2 0.0
30/12:30pm 9.9 7.6 5.5 74 2.0 SSE 7 11 4 6 1027.0 1027.3 0.0
30/12:00pm 9.5 7.3 6.2 80 1.5 SSW 7 13 4 7 1027.1 1027.4 0.0
30/11:30am 8.6 6.2 5.4 80 1.5 SW 7 11 4 6 1027.4 1027.7 0.0
30/11:00am 7.5 4.4 5.5 87 0.9 SSW 11 13 6 7 1027.6 1027.9 0.0
30/10:30am 6.8 4.1 5.4 91 0.6 S 9 11 5 6 1027.7 1028.0 0.0
30/10:00am 5.9 3.4 5.0 94 0.4 S 7 13 4 7 1027.4 1027.7 0.0
30/09:30am 5.1 1.8 4.4 95 0.3 SSW 11 15 6 8 1027.1 1027.4 0.0
30/09:00am 4.1 -0.2 3.5 96 0.2 SSW 15 19 8 10 1026.8 1027.1 0.2
30/08:30am 3.7 0.5 3.3 97 0.2 S 9 11 5 6 1026.6 1026.9 0.2
30/08:00am 2.7 -0.6 2.3 97 0.2 SSW 9 13 5 7 1026.1 1026.3 0.2
30/07:30am 2.4 -1.0 2.0 97 0.2 S 9 13 5 7 1025.7 1025.9 0.2
30/07:27am 2.4 -1.0 2.0 97 0.2 S 9 13 5 7 1025.7 1025.9 0.2
30/07:00am 1.9 -1.2 1.5 97 0.2 S 7 11 4 6 1025.5 1025.7 0.0
30/06:30am 2.5 -1.6 2.1 97 0.2 SSW 13 15 7 8 1025.2 1025.4 0.0
30/06:08am 2.9 -1.2 2.5 97 0.2 SSW 13 15 7 8 1024.9 1025.1 0.0
30/06:00am 2.7 -1.4 2.3 97 0.2 SSW 13 15 7 8 1024.8 1025.0 0.0
30/05:33am 2.7 -1.8 2.1 96 0.2 SSW 15 17 8 9 1024.6 1024.8 0.0
30/05:30am 2.7 -1.8 2.1 96 0.2 SSW 15 17 8 9 1024.6 1024.8 0.0
30/05:00am 2.9 -0.4 2.2 95 0.3 S 9 11 5 6 1024.2 1024.5 0.0
30/04:30am 3.7 -0.3 3.0 95 0.3 SW 13 15 7 8 1023.9 1024.2 0.0
30/04:00am 3.9 0.3 3.2 95 0.3 SSW 11 13 6 7 1023.5 1023.8 0.0
30/03:30am 4.0 -0.3 3.1 94 0.4 SW 15 17 8 9 1023.4 1023.7 0.0
30/03:00am 4.3 0.4 3.4 94 0.4 SSW 13 17 7 9 1023.3 1023.6 0.0
30/02:30am 4.5 0.2 3.5 93 0.4 SSW 15 17 8 9 1023.1 1023.4 0.0
30/02:00am 4.5 0.2 3.5 93 0.4 SSW 15 17 8 9 1023.0 1023.3 0.0
30/01:30am 4.2 -0.1 3.0 92 0.5 S 15 19 8 10 1022.6 1022.9 0.0
30/01:00am 5.1 1.0 4.1 93 0.4 S 15 17 8 9 1022.5 1022.8 0.0
30/12:30am 4.2 1.0 2.9 91 0.5 SSE 9 13 5 7 1022.4 1022.7 0.0
30/12:00am 4.9 1.1 3.7 92 0.5 S 13 15 7 8 1022.2 1022.5 0.0
 
Date/Time
EST
Temp
°C
App
Temp
°C
Dew
Point
Rel
Hum
%
Delta-T
°C
Wind Press
QNH
hPa
Press
MSL
hPa
Rain
since 9 am
mm
Dir
 
Spd
km/h
Gust
km/h
Spd
kts
Gust
kts
29/11:30pm 4.7 0.4 3.2 90 0.6 SSW 15 17 8 9 1022.0 1022.3 0.0
29/11:00pm 4.7 1.1 3.2 90 0.6 S 11 13 6 7 1021.5 1021.8 0.0
29/10:30pm 5.5 1.7 3.8 89 0.7 S 13 17 7 9 1021.3 1021.6 0.0
29/10:00pm 5.1 1.6 3.4 89 0.7 S 11 13 6 7 1021.1 1021.3 0.0
29/09:30pm 5.5 2.4 3.5 87 0.8 S 9 13 5 7 1021.1 1021.3 0.0
29/09:00pm 5.9 2.2 4.2 89 0.7 SSE 13 15 7 8 1020.6 1020.8 0.0
29/08:30pm 6.1 2.3 4.1 87 0.9 SSE 13 17 7 9 1020.3 1020.5 0.0
29/08:00pm 7.0 2.9 4.5 84 1.1 S 15 19 8 10 1020.1 1020.3 0.0
29/07:30pm 7.1 3.0 4.4 83 1.2 SSE 15 17 8 9 1019.6 1019.8 0.0
29/07:00pm 8.0 4.1 5.3 83 1.2 SSE 15 19 8 10 1019.1 1019.3 0.0
29/06:30pm 8.0 5.2 5.1 82 1.3 SSE 9 11 5 6 1018.6 1018.8 0.0
29/06:00pm 8.3 4.7 5.2 81 1.4 SE 13 15 7 8 1018.2 1018.4 0.0
29/05:30pm 8.5 5.3 5.3 80 1.4 SE 11 15 6 8 1017.8 1018.1 0.0
29/05:00pm 9.5 5.7 5.9 78 1.7 SSE 15 19 8 10 1017.3 1017.6 0.0
29/04:30pm 10.1 6.7 5.9 75 2.0 SE 13 15 7 8 1017.1 1017.4 0.0
29/04:00pm 11.7 8.3 5.8 67 2.8 SE 13 17 7 9 1016.8 1017.1 0.0
29/03:30pm 11.4 8.8 5.9 69 2.6 ESE 9 15 5 8 1016.6 1016.9 0.0
29/03:00pm 12.0 8.3 6.3 68 2.7 ESE 15 20 8 11 1016.3 1016.5 0.0
29/02:30pm 11.7 7.6 6.2 69 2.6 ESE 17 20 9 11 1015.8 1016.0 0.0
29/02:00pm 12.7 9.0 6.1 64 3.1 SSE 15 22 8 12 1015.5 1015.7 0.0
29/01:30pm 11.9 7.9 5.1 63 3.2 SE 15 20 8 11 1015.4 1015.6 0.0
29/01:00pm 11.1 7.9 5.2 67 2.7 SE 11 17 6 9 1015.2 1015.4 0.0
29/12:30pm 10.7 8.0 5.7 71 2.3 ESE 9 13 5 7 1015.2 1015.4 0.0
29/12:00pm 10.2 8.4 5.2 71 2.3 W 4 7 2 4 1015.4 1015.6 0.0
29/11:30am 9.1 6.7 4.1 71 2.2 NE 6 9 3 5 1015.4 1015.6 0.0
29/11:00am 9.0 8.0 5.7 80 1.5 CALM 0 0 0 0 1015.4 1015.6 0.0
29/10:30am 7.9 6.1 5.2 83 1.2 ENE 4 9 2 5 1015.2 1015.4 0.0
29/10:00am 7.0 5.9 5.3 89 0.8 CALM 0 6 0 3 1014.9 1015.1 0.0
29/09:30am 5.2 3.1 4.0 92 0.5 SE 4 7 2 4 1014.6 1014.8 0.0
29/09:00am 4.4 1.3 3.5 94 0.4 E 9 13 5 7 1014.5 1014.7 0.0
29/08:30am 5.1 2.6 4.5 96 0.3 W 7 9 4 5 1014.1 1014.3 0.0
29/08:00am 2.8 0.0 2.2 96 0.2 W 6 7 3 4 1013.8 1014.0 0.0
29/07:30am 2.2 0.1 1.6 96 0.2 SW 2 6 1 3 1013.4 1013.6 0.0
29/07:00am 1.9 0.1 1.3 96 0.2 CALM 0 7 0 4 1013.0 1013.2 0.0
29/06:30am 2.2 -0.7 1.6 96 0.2 W 6 11 3 6 1012.9 1013.1 0.0
29/06:00am 2.1 -0.4 1.5 96 0.2 W 4 7 2 4 1012.5 1012.7 0.0
29/05:30am 0.9 -1.4 0.2 95 0.3 SW 2 9 1 5 1012.3 1012.5 0.0
29/05:00am 1.7 -0.1 1.0 95 0.3 CALM 0 0 0 0 1012.0 1012.2 0.0
29/04:30am 2.1 0.0 1.4 95 0.3 S 2 11 1 6 1011.6 1011.9 0.0
29/04:00am 3.0 1.4 2.3 95 0.3 CALM 0 4 0 2 1011.3 1011.5 0.0
29/03:30am 2.7 -0.7 2.0 95 0.3 SSW 9 11 5 6 1011.4 1011.7 0.0
29/03:00am 2.1 -1.0 1.1 93 0.4 SW 7 11 4 6 1011.3 1011.5 0.0
29/02:30am 2.5 -0.4 1.3 92 0.5 NNW 6 7 3 4 1011.0 1011.2 0.0
29/02:00am 3.5 0.5 2.3 92 0.5 SSE 7 9 4 5 1010.8 1011.0 0.0
29/01:30am 3.5 0.5 1.9 89 0.6 S 7 11 4 6 1010.7 1010.9 0.0
29/01:00am 3.7 0.7 1.9 88 0.7 SSE 7 9 4 5 1010.6 1010.8 0.0
29/12:30am 4.0 1.7 2.5 90 0.6 SE 4 6 2 3 1010.5 1010.7 0.0
29/12:00am 4.4 0.8 2.8 89 0.7 S 11 13 6 7 1010.5 1010.7 0.0
 
Date/Time
EST
Temp
°C
App
Temp
°C
Dew
Point
Rel
Hum
%
Delta-T
°C
Wind Press
QNH
hPa
Press
MSL
hPa
Rain
since 9 am
mm
Dir
 
Spd
km/h
Gust
km/h
Spd
kts
Gust
kts
28/11:30pm 5.1 1.5 3.0 86 0.9 S 11 13 6 7 1010.4 1010.6 0.0
28/11:00pm 5.1 1.5 2.8 85 1.0 S 11 13 6 7 1010.2 1010.4 0.0
28/10:30pm 6.6 3.9 3.8 82 1.2 S 7 7 4 4 1010.1 1010.3 0.0
28/10:00pm 7.3 4.7 4.4 82 1.3 SW 7 7 4 4 1010.0 1010.2 0.0
28/09:30pm 6.8 4.2 4.3 84 1.1 SW 7 9 4 5 1009.9 1010.1 0.0
28/09:00pm 6.6 4.9 3.9 83 1.2 ESE 2 6 1 3 1009.8 1010.0 0.0
28/08:30pm 6.6 4.0 4.3 85 1.0 SE 7 9 4 5 1009.5 1009.7 0.0
28/08:00pm 6.7 4.2 3.9 82 1.2 E 6 7 3 4 1009.4 1009.6 0.0
28/07:30pm 7.3 6.0 4.1 80 1.4 CALM 0 0 0 0 1009.0 1009.2 0.0
28/07:00pm 7.0 4.4 3.4 78 1.5 WSW 6 7 3 4 1008.9 1009.1 0.0
28/06:30pm 7.9 5.3 4.3 78 1.6 WNW 7 9 4 5 1008.5 1008.7 0.0
28/06:00pm 7.3 4.6 3.7 78 1.6 W 7 7 4 4 1008.2 1008.4 0.0
28/05:30pm 7.9 6.5 3.8 75 1.8 CALM 0 0 0 0 1007.9 1008.1 0.0
28/05:00pm 8.2 5.6 3.1 70 2.2 E 6 7 3 4 1007.6 1007.8 0.0
28/04:30pm 9.7 7.4 2.8 62 3.0 E 4 9 2 5 1007.5 1007.7 0.0
28/04:00pm 11.1 9.6 2.9 57 3.6 CALM 0 0 0 0 1007.4 1007.6 0.0
28/03:30pm 11.3 9.7 2.6 55 3.8 CALM 0 0 0 0 1007.2 1007.4 0.0
28/03:00pm 11.6 9.0 3.1 56 3.8 SSE 6 9 3 5 1007.0 1007.2 0.0
28/02:30pm 11.4 8.5 1.6 51 4.2 SSE 6 11 3 6 1006.8 1007.0 0.0
28/02:00pm 11.4 8.6 1.9 52 4.1 ESE 6 9 3 5 1006.7 1006.9 0.0

Other Formats:

Comma delimited format used in spreadsheet applications
http://www.bom.gov.au/fwo/IDT60801/IDT60801.95966.axf

JavaScript Object Notation format (JSON) in row-major order
http://www.bom.gov.au/fwo/IDT60801/IDT60801.95966.json